Time;durP1;ratioP1;P1;durP2;ratioP2;P2;SDS_P1;SDS_P2;PMS_P1;PMS_P2;Temp;Humidity;BMP_temperature;BMP_pressure;BME280_temperature;BME280_humidity;BME280_pressure;Samples;Min_cycle;Max_cycle;Signal;HPM_P1;HPM_P2
2022/04/09 00:01:36;;;;;;;8.07;2.57;;;3.00;88.70;;;;;;4860380;29;20235;-91
2022/04/09 00:04:02;;;;;;;11.63;2.60;;;3.00;88.90;;;;;;4862131;29;20202;-91
2022/04/09 00:06:28;;;;;;;11.53;3.70;;;3.00;89.10;;;;;;4857512;29;20222;-91
2022/04/09 00:08:54;;;;;;;11.63;3.07;;;2.90;89.20;;;;;;4863040;29;20206;-91
2022/04/09 00:11:19;;;;;;;9.20;3.20;;;2.80;89.30;;;;;;4856652;29;20186;-91
2022/04/09 00:13:45;;;;;;;7.73;2.43;;;2.80;89.50;;;;;;4857284;29;20193;-91
2022/04/09 00:16:10;;;;;;;8.90;2.53;;;2.80;89.60;;;;;;4854908;29;20213;-91
2022/04/09 00:18:36;;;;;;;10.13;2.97;;;2.80;89.70;;;;;;4857239;29;20211;-91
2022/04/09 00:21:02;;;;;;;15.40;3.00;;;2.80;89.80;;;;;;4861614;29;20186;-91
2022/04/09 00:23:27;;;;;;;13.80;2.97;;;2.80;89.80;;;;;;4858630;29;20198;-91
2022/04/09 00:25:53;;;;;;;17.27;3.03;;;2.80;89.80;;;;;;4862215;29;20207;-92
2022/04/09 00:28:18;;;;;;;14.47;3.17;;;2.80;89.80;;;;;;4862405;29;20191;-92
2022/04/09 00:30:44;;;;;;;21.33;3.07;;;2.80;89.90;;;;;;4865903;29;20182;-91
2022/04/09 00:33:10;;;;;;;6.23;2.50;;;2.90;90.10;;;;;;4867327;29;20191;-91
2022/04/09 00:35:35;;;;;;;8.43;2.57;;;3.00;90.20;;;;;;4864234;29;20194;-91
2022/04/09 00:38:01;;;;;;;11.40;3.03;;;3.20;90.00;;;;;;4861445;29;20289;-91
2022/04/09 00:40:27;;;;;;;14.10;2.60;;;3.20;89.80;;;;;;4861074;29;20183;-92
2022/04/09 00:42:53;;;;;;;8.60;3.03;;;3.10;89.60;;;;;;4855008;29;20185;-92
2022/04/09 00:45:19;;;;;;;8.70;2.50;;;3.00;89.40;;;;;;4855115;29;20185;-92
2022/04/09 00:47:44;;;;;;;6.17;2.20;;;3.00;89.50;;;;;;4861466;29;20237;-93
2022/04/09 00:50:11;;;;;;;9.07;2.53;;;3.00;89.40;;;;;;4863446;29;20182;-92
2022/04/09 00:52:42;;;;;;;6.30;2.00;;;3.00;89.40;;;;;;4861756;29;20193;-92
2022/04/09 00:55:09;;;;;;;4.77;1.93;;;3.00;89.30;;;;;;4866229;29;20163;-93
2022/04/09 00:57:37;;;;;;;4.87;1.87;;;2.90;89.10;;;;;;4865432;29;20251;-92
2022/04/09 01:00:11;;;;;;;7.83;2.00;;;2.90;89.10;;;;;;4861454;29;20178;-92
2022/04/09 01:02:45;;;;;;;6.23;2.00;;;2.90;88.90;;;;;;4867577;29;20186;-93
2022/04/09 01:05:12;;;;;;;5.23;1.80;;;2.80;88.80;;;;;;4866078;29;20176;-92
2022/04/09 01:07:38;;;;;;;3.23;1.80;;;2.80;88.80;;;;;;4862160;29;20218;-93
2022/04/09 01:10:05;;;;;;;6.37;2.23;;;2.80;88.80;;;;;;4867970;29;20214;-93
2022/04/09 01:12:33;;;;;;;3.60;1.90;;;2.70;88.80;;;;;;4867411;29;20182;-93
2022/04/09 01:15:00;;;;;;;3.43;1.80;;;2.70;88.80;;;;;;4864630;29;20178;-92
2022/04/09 01:17:26;;;;;;;8.60;1.97;;;2.60;88.80;;;;;;4860865;29;20206;-92
2022/04/09 01:19:51;;;;;;;6.83;2.10;;;2.70;89.00;;;;;;4855325;29;20179;-92
2022/04/09 01:22:17;;;;;;;6.53;2.30;;;2.60;89.00;;;;;;4854864;29;20269;-92
2022/04/09 01:24:42;;;;;;;3.60;2.10;;;2.70;89.10;;;;;;4850437;29;20217;-92
2022/04/09 01:27:08;;;;;;;3.50;1.73;;;2.50;89.20;;;;;;4853569;29;20207;-92
2022/04/09 01:29:34;;;;;;;6.87;2.27;;;2.60;89.20;;;;;;4860433;29;20186;-91
2022/04/09 01:31:59;;;;;;;14.50;3.63;;;2.50;89.20;;;;;;4853127;29;20186;-92
2022/04/09 01:34:25;;;;;;;10.00;2.77;;;2.50;89.20;;;;;;4855901;29;20212;-92
2022/04/09 01:36:51;;;;;;;14.13;3.27;;;2.60;89.20;;;;;;4860377;29;20230;-92
2022/04/09 01:39:18;;;;;;;4.47;2.27;;;2.60;89.20;;;;;;4852806;29;20206;-91
2022/04/09 01:41:45;;;;;;;8.23;2.10;;;2.60;89.10;;;;;;4854589;29;20180;-92
2022/04/09 01:44:10;;;;;;;7.63;1.97;;;2.50;89.00;;;;;;4856795;29;20193;-92
2022/04/09 01:49:09;;;;;;;9.50;2.50;;;2.60;89.10;;;;;;4893974;29;20208;-93
2022/04/09 01:51:35;;;;;;;7.43;2.50;;;2.60;89.00;;;;;;4895257;29;20252;-92
2022/04/09 01:54:00;;;;;;;9.07;2.17;;;2.70;89.00;;;;;;4889254;29;20188;-93
2022/04/09 01:56:26;;;;;;;6.60;2.70;;;2.60;89.00;;;;;;4884395;29;20205;-93
2022/04/09 01:58:51;;;;;;;4.67;2.00;;;2.60;89.00;;;;;;4889627;29;20212;-92
2022/04/09 02:01:17;;;;;;;9.90;2.60;;;2.60;89.00;;;;;;4887649;29;20658;-92
2022/04/09 02:03:43;;;;;;;15.30;3.50;;;2.50;89.10;;;;;;4890618;29;20195;-92
2022/04/09 02:06:09;;;;;;;5.07;2.50;;;2.50;89.10;;;;;;4892193;29;20280;-92
2022/04/09 02:08:34;;;;;;;9.93;2.47;;;2.50;89.00;;;;;;4889872;29;20186;-92
2022/04/09 02:11:00;;;;;;;20.57;6.37;;;2.60;88.90;;;;;;4891628;29;20186;-92
2022/04/09 02:13:25;;;;;;;7.93;2.47;;;2.50;88.90;;;;;;4892083;29;20192;-92
2022/04/09 02:15:51;;;;;;;11.00;2.60;;;2.50;89.00;;;;;;4887996;29;20296;-93
2022/04/09 02:18:16;;;;;;;7.73;2.57;;;2.50;89.10;;;;;;4890722;29;20266;-92
2022/04/09 02:20:42;;;;;;;8.97;2.47;;;2.50;89.10;;;;;;4891935;29;20207;-92
2022/04/09 02:23:07;;;;;;;8.90;3.27;;;2.50;89.20;;;;;;4889803;29;20187;-92
2022/04/09 02:25:33;;;;;;;8.13;3.27;;;2.50;89.10;;;;;;4890092;29;20212;-92
2022/04/09 02:27:59;;;;;;;4.53;3.20;;;2.50;89.10;;;;;;4885066;29;20223;-92
2022/04/09 02:30:24;;;;;;;14.47;3.40;;;2.40;89.10;;;;;;4884118;29;20637;-92
2022/04/09 02:32:52;;;;;;;11.43;2.90;;;2.40;89.20;;;;;;4883774;29;20192;-92
2022/04/09 02:35:19;;;;;;;12.73;2.63;;;2.40;89.30;;;;;;4885481;29;20179;-92
2022/04/09 02:37:45;;;;;;;6.43;2.67;;;2.40;89.20;;;;;;4884660;29;20301;-93
2022/04/09 02:40:12;;;;;;;8.93;3.07;;;2.40;89.10;;;;;;4884746;29;20184;-92
2022/04/09 02:42:39;;;;;;;8.60;2.80;;;2.30;88.80;;;;;;4884536;29;20209;-92
2022/04/09 02:45:06;;;;;;;6.83;3.10;;;2.30;88.60;;;;;;4886146;29;20181;-92
2022/04/09 02:47:32;;;;;;;6.43;2.80;;;2.30;88.50;;;;;;4888912;29;20242;-92
2022/04/09 02:49:59;;;;;;;8.10;2.70;;;2.30;88.20;;;;;;4885882;29;20649;-92
2022/04/09 02:52:27;;;;;;;4.33;2.63;;;2.30;87.70;;;;;;4883985;29;20185;-92
2022/04/09 02:54:53;;;;;;;7.07;2.63;;;2.30;87.50;;;;;;4886110;29;20187;-92
2022/04/09 02:57:18;;;;;;;9.27;3.00;;;2.40;87.30;;;;;;4886971;29;20211;-92
2022/04/09 02:59:44;;;;;;;5.83;2.03;;;2.40;87.20;;;;;;4885132;29;20231;-92
2022/04/09 03:02:09;;;;;;;10.20;2.60;;;2.40;86.80;;;;;;4884752;29;20173;-93
2022/04/09 03:04:35;;;;;;;8.40;2.83;;;2.40;86.70;;;;;;4885486;29;20188;-92
2022/04/09 03:07:00;;;;;;;9.03;3.00;;;2.50;86.80;;;;;;4884151;29;20206;-92
2022/04/09 03:09:26;;;;;;;11.30;3.37;;;2.40;86.80;;;;;;4884646;29;20196;-93
2022/04/09 03:11:52;;;;;;;4.93;2.80;;;2.50;87.00;;;;;;4883301;29;20197;-92
2022/04/09 03:14:17;;;;;;;10.27;3.20;;;2.50;87.10;;;;;;4884354;29;20188;-93
2022/04/09 03:16:43;;;;;;;12.13;2.90;;;2.50;87.40;;;;;;4883668;29;20219;-91
2022/04/09 03:19:08;;;;;;;7.20;2.47;;;2.50;87.40;;;;;;4882893;29;20221;-91
2022/04/09 03:21:34;;;;;;;6.30;2.63;;;2.50;87.40;;;;;;4884027;29;20182;-92
2022/04/09 03:23:59;;;;;;;6.27;2.80;;;2.60;87.40;;;;;;4883105;29;20185;-91
2022/04/09 03:26:25;;;;;;;5.63;2.60;;;2.60;87.30;;;;;;4886070;29;20633;-91
2022/04/09 03:28:50;;;;;;;11.70;3.57;;;2.60;87.10;;;;;;4884075;29;20189;-91
2022/04/09 03:31:16;;;;;;;15.73;3.10;;;2.60;87.20;;;;;;4888916;29;20189;-92
2022/04/09 03:33:42;;;;;;;11.27;3.03;;;2.50;87.30;;;;;;4890690;29;20185;-92
2022/04/09 03:36:07;;;;;;;9.87;2.67;;;2.40;87.60;;;;;;4889442;29;20208;-92
2022/04/09 03:38:33;;;;;;;10.73;2.57;;;2.40;87.80;;;;;;4890060;29;20204;-92
2022/04/09 03:40:59;;;;;;;10.97;2.70;;;2.40;87.90;;;;;;4889584;29;20187;-92
2022/04/09 03:43:26;;;;;;;7.97;3.10;;;2.40;87.80;;;;;;4891116;29;20243;-92
2022/04/09 03:45:51;;;;;;;9.03;2.90;;;2.50;88.00;;;;;;4890698;29;20213;-92
2022/04/09 03:48:17;;;;;;;8.33;3.03;;;2.40;88.00;;;;;;4890533;29;20271;-92
2022/04/09 03:50:42;;;;;;;5.23;3.47;;;2.40;88.10;;;;;;4889180;29;20191;-91
2022/04/09 03:53:08;;;;;;;7.03;2.90;;;2.40;88.20;;;;;;4888396;29;20189;-91
2022/04/09 03:55:33;;;;;;;14.57;3.70;;;2.40;88.20;;;;;;4887987;29;20183;-92
2022/04/09 03:57:59;;;;;;;7.00;2.80;;;2.40;88.20;;;;;;4889061;29;20208;-92
2022/04/09 04:00:25;;;;;;;8.67;3.17;;;2.40;88.20;;;;;;4888994;29;20192;-92
2022/04/09 04:02:51;;;;;;;30.97;4.67;;;2.50;88.20;;;;;;4890702;29;20202;-92
2022/04/09 04:05:17;;;;;;;11.87;3.73;;;2.50;88.20;;;;;;4889622;29;20176;-92
2022/04/09 04:07:46;;;;;;;12.40;3.13;;;2.50;88.20;;;;;;4890197;29;20209;-92
2022/04/09 04:10:12;;;;;;;13.40;3.33;;;2.50;88.10;;;;;;4888595;29;20618;-92
2022/04/09 04:12:40;;;;;;;15.93;4.17;;;2.60;88.20;;;;;;4888895;29;20189;-92
2022/04/09 04:15:07;;;;;;;13.07;3.37;;;2.60;88.20;;;;;;4889339;29;20185;-92
2022/04/09 04:17:43;;;;;;;19.60;3.93;;;2.70;87.90;;;;;;4889470;29;20213;-92
2022/04/09 04:20:10;;;;;;;11.67;3.43;;;2.70;87.70;;;;;;4889864;29;20175;-92
2022/04/09 04:22:37;;;;;;;7.97;3.20;;;2.70;87.70;;;;;;4890297;29;20641;-92
2022/04/09 04:25:06;;;;;;;13.90;3.77;;;2.70;87.50;;;;;;4888225;29;20188;-92
2022/04/09 04:27:32;;;;;;;21.87;4.53;;;2.80;87.40;;;;;;4887750;29;20231;-92
2022/04/09 04:30:03;;;;;;;14.03;3.80;;;2.70;87.40;;;;;;4886993;29;20555;-92
2022/04/09 04:32:28;;;;;;;13.40;3.10;;;2.80;87.20;;;;;;4888291;29;20199;-92
2022/04/09 04:34:54;;;;;;;12.40;3.50;;;2.80;87.10;;;;;;4887932;29;20192;-92
2022/04/09 04:37:20;;;;;;;15.03;3.30;;;2.70;87.30;;;;;;4887713;29;20206;-92
2022/04/09 04:39:45;;;;;;;21.30;3.57;;;2.70;87.30;;;;;;4890999;29;20188;-92
2022/04/09 04:42:42;;;;;;;15.47;3.77;;;2.80;87.30;;;;;;4888272;29;20581;-91
2022/04/09 04:45:10;;;;;;;23.53;3.93;;;2.70;87.30;;;;;;4889648;29;20204;-92
2022/04/09 04:47:48;;;;;;;17.73;3.30;;;2.80;86.90;;;;;;4889461;29;20227;-92
2022/04/09 04:50:15;;;;;;;14.70;4.17;;;2.80;87.00;;;;;;4892833;29;20276;-91
2022/04/09 04:52:41;;;;;;;16.70;4.27;;;2.80;87.20;;;;;;4883513;29;20177;-92
2022/04/09 04:55:08;;;;;;;22.50;4.73;;;2.80;87.30;;;;;;4882977;29;20204;-91
2022/04/09 04:57:41;;;;;;;13.60;4.53;;;2.80;87.40;;;;;;4884410;29;20286;-91
2022/04/09 05:00:08;;;;;;;20.67;4.97;;;2.90;87.40;;;;;;4884129;29;20250;-92
2022/04/09 05:02:34;;;;;;;16.30;4.53;;;2.90;87.30;;;;;;4886634;29;20178;-91
2022/04/09 05:05:01;;;;;;;12.47;3.83;;;2.90;87.50;;;;;;4887316;29;20174;-91
2022/04/09 05:07:56;;;;;;;12.43;4.17;;;2.80;87.70;;;;;;4896929;23;20603;-90
2022/04/09 05:10:23;;;;;;;10.07;4.40;;;2.80;87.90;;;;;;4860054;29;20211;-91
2022/04/09 05:12:50;;;;;;;12.97;3.40;;;2.90;87.60;;;;;;4860148;29;20185;-90
2022/04/09 05:15:17;;;;;;;14.33;3.77;;;2.90;87.10;;;;;;4860061;29;20181;-91
2022/04/09 05:17:43;;;;;;;10.47;3.40;;;2.90;86.80;;;;;;4860017;29;20222;-90
2022/04/09 05:20:14;;;;;;;20.37;3.77;;;3.00;86.70;;;;;;4860064;29;20182;-91
2022/04/09 05:22:46;;;;;;;18.43;4.00;;;3.10;86.50;;;;;;4860152;29;20551;-90
2022/04/09 05:25:13;;;;;;;14.53;4.23;;;3.10;86.50;;;;;;4860016;29;20647;-90
2022/04/09 05:27:39;;;;;;;22.50;4.77;;;3.10;86.60;;;;;;4861100;29;20197;-91
2022/04/09 05:30:06;;;;;;;18.73;4.40;;;3.20;86.70;;;;;;4861440;29;20173;-90
2022/04/09 05:32:32;;;;;;;19.43;4.53;;;3.20;86.90;;;;;;4860709;29;20185;-90
2022/04/09 05:34:57;;;;;;;12.77;3.80;;;3.30;87.10;;;;;;4861108;29;20177;-91
2022/04/09 05:37:23;;;;;;;10.70;3.80;;;3.20;87.30;;;;;;4859817;29;20284;-91
2022/04/09 05:39:48;;;;;;;13.77;3.70;;;3.20;87.60;;;;;;4859694;29;20608;-90
2022/04/09 05:42:15;;;;;;;14.37;4.30;;;3.10;87.80;;;;;;4860269;29;20663;-90
2022/04/09 05:44:40;;;;;;;21.03;4.57;;;3.20;87.90;;;;;;4859876;29;20192;-91
2022/04/09 05:47:06;;;;;;;24.90;5.03;;;3.20;88.00;;;;;;4859718;29;20281;-90
2022/04/09 05:49:32;;;;;;;13.60;3.93;;;3.30;88.10;;;;;;4859791;29;20189;-90
2022/04/09 05:51:58;;;;;;;25.13;4.93;;;3.30;88.00;;;;;;4859759;29;20239;-91
2022/04/09 05:54:24;;;;;;;18.40;4.90;;;3.30;88.00;;;;;;4859716;29;20186;-91
2022/04/09 05:56:50;;;;;;;15.33;4.90;;;3.30;88.00;;;;;;4859785;29;20298;-91
2022/04/09 05:59:16;;;;;;;16.93;3.00;;;3.30;88.10;;;;;;4859908;29;20212;-90
2022/04/09 06:01:42;;;;;;;11.67;4.20;;;3.40;88.20;;;;;;4859733;29;20557;-91
2022/04/09 06:04:07;;;;;;;5.30;2.77;;;3.40;87.90;;;;;;4859617;29;20186;-91
2022/04/09 06:06:33;;;;;;;7.27;3.47;;;3.30;88.10;;;;;;4859527;29;20187;-91
2022/04/09 06:08:58;;;;;;;13.13;3.60;;;3.30;88.30;;;;;;4860476;29;20644;-91
2022/04/09 06:11:24;;;;;;;16.03;3.17;;;3.40;88.50;;;;;;4859838;29;20658;-91
2022/04/09 06:13:50;;;;;;;13.43;3.73;;;3.60;88.30;;;;;;4859524;29;20183;-90
2022/04/09 06:16:16;;;;;;;12.77;3.33;;;3.70;87.90;;;;;;4859704;29;20182;-90
2022/04/09 06:18:42;;;;;;;7.57;3.30;;;3.70;87.70;;;;;;4859372;29;20217;-91
2022/04/09 06:21:08;;;;;;;12.77;4.17;;;3.70;87.80;;;;;;4859403;29;20175;-91
2022/04/09 06:23:34;;;;;;;21.27;4.40;;;3.70;87.80;;;;;;4860176;29;20181;-91
2022/04/09 06:25:59;;;;;;;14.47;3.20;;;3.80;87.70;;;;;;4859324;29;20181;-91
2022/04/09 06:28:25;;;;;;;17.70;4.37;;;4.00;88.10;;;;;;4860558;29;20238;-90
2022/04/09 06:30:51;;;;;;;12.97;3.70;;;4.20;87.90;;;;;;4860628;29;20186;-90
2022/04/09 06:33:17;;;;;;;11.13;2.73;;;4.20;87.70;;;;;;4859355;29;20197;-90
2022/04/09 06:35:43;;;;;;;7.37;3.23;;;4.10;87.50;;;;;;4859365;29;20191;-90
2022/04/09 06:38:08;;;;;;;14.60;4.63;;;4.00;87.50;;;;;;4859219;29;20214;-90
2022/04/09 06:40:34;;;;;;;5.00;2.07;;;4.00;87.80;;;;;;4859260;29;20191;-90
2022/04/09 06:42:59;;;;;;;6.10;2.80;;;4.00;87.70;;;;;;4859373;29;20315;-90
2022/04/09 06:45:25;;;;;;;16.37;3.00;;;4.30;87.40;;;;;;4859351;29;20190;-89
2022/04/09 06:47:51;;;;;;;8.67;3.10;;;4.30;87.70;;;;;;4859260;29;20305;-90
2022/04/09 06:50:17;;;;;;;13.33;3.30;;;4.30;87.40;;;;;;4859382;29;20191;-90
2022/04/09 06:52:43;;;;;;;13.17;2.67;;;4.30;87.70;;;;;;4862706;29;20285;-90
2022/04/09 06:55:09;;;;;;;13.73;2.67;;;4.40;87.60;;;;;;4862500;29;20192;-91
2022/04/09 06:57:39;;;;;;;11.27;2.93;;;4.40;87.30;;;;;;4862396;29;20338;-91
2022/04/09 07:00:15;;;;;;;8.47;2.87;;;4.30;87.30;;;;;;4863894;29;20175;-90
2022/04/09 07:02:41;;;;;;;10.80;3.47;;;4.30;87.80;;;;;;4862741;29;20598;-90
2022/04/09 07:05:08;;;;;;;8.47;3.07;;;4.20;88.20;;;;;;4862414;29;20186;-90
2022/04/09 07:07:34;;;;;;;16.77;4.00;;;4.10;88.60;;;;;;4863261;29;20292;-90
2022/04/09 07:10:09;;;;;;;19.03;3.40;;;4.00;89.10;;;;;;4863372;29;20171;-90
2022/04/09 07:12:36;;;;;;;10.73;2.67;;;4.00;89.30;;;;;;4862315;29;20174;-90
2022/04/09 07:15:03;;;;;;;12.13;3.30;;;4.10;89.30;;;;;;4862191;29;20187;-90
2022/04/09 07:17:29;;;;;;;5.73;3.07;;;4.20;89.40;;;;;;4863157;29;20278;-90
2022/04/09 07:19:58;;;;;;;12.57;3.30;;;4.30;89.50;;;;;;4863381;29;20180;-90
2022/04/09 07:22:24;;;;;;;7.20;3.43;;;4.30;89.50;;;;;;4862042;29;20215;-90
2022/04/09 07:24:50;;;;;;;18.97;3.43;;;4.60;90.10;;;;;;4862039;29;20198;-90
2022/04/09 07:27:15;;;;;;;12.37;2.80;;;4.60;89.70;;;;;;4861832;29;20761;-90
2022/04/09 07:29:41;;;;;;;9.43;2.77;;;4.80;89.40;;;;;;4863064;29;20186;-90
2022/04/09 07:32:07;;;;;;;5.77;2.00;;;4.90;89.40;;;;;;4861910;29;20195;-90
2022/04/09 07:34:33;;;;;;;8.53;2.10;;;4.90;88.30;;;;;;4863004;29;20209;-90
2022/04/09 07:36:58;;;;;;;4.70;2.30;;;5.00;88.60;;;;;;4861751;29;20679;-90
2022/04/09 07:39:24;;;;;;;5.77;2.10;;;5.00;88.20;;;;;;4861768;29;20211;-89
2022/04/09 07:41:49;;;;;;;4.93;1.80;;;5.00;88.00;;;;;;4861866;29;20722;-89
2022/04/09 07:44:15;;;;;;;5.33;2.23;;;5.10;88.40;;;;;;4863034;29;20187;-89
2022/04/09 07:46:41;;;;;;;5.63;2.07;;;5.20;88.60;;;;;;4861595;29;20227;-89
2022/04/09 07:49:06;;;;;;;6.43;2.07;;;5.30;88.10;;;;;;4861640;29;20192;-89
2022/04/09 07:51:32;;;;;;;6.23;2.73;;;5.50;88.60;;;;;;4861547;29;20647;-91
2022/04/09 07:53:57;;;;;;;4.67;1.97;;;5.70;88.50;;;;;;4862683;29;20192;-91
2022/04/09 07:56:23;;;;;;;13.23;2.50;;;5.60;87.50;;;;;;4861427;29;20193;-90
2022/04/09 07:58:48;;;;;;;15.97;2.80;;;5.50;87.90;;;;;;4861778;29;20211;-88
2022/04/09 08:01:14;;;;;;;7.73;2.67;;;5.40;87.90;;;;;;4863283;29;20219;-88
2022/04/09 08:03:39;;;;;;;6.03;3.60;;;5.30;87.80;;;;;;4862193;29;20195;-90
2022/04/09 08:06:05;;;;;;;5.43;1.63;;;5.40;87.80;;;;;;4862780;29;20223;-89
2022/04/09 08:08:32;;;;;;;4.30;2.10;;;5.40;87.70;;;;;;4861031;29;20236;-90
2022/04/09 08:10:58;;;;;;;5.20;1.90;;;5.40;87.40;;;;;;4861142;29;20235;-90
2022/04/09 08:13:24;;;;;;;3.93;1.57;;;5.40;87.30;;;;;;4861134;29;20273;-89
2022/04/09 08:15:49;;;;;;;3.30;1.37;;;5.30;86.60;;;;;;4861133;29;20184;-90
2022/04/09 08:18:15;;;;;;;6.90;3.30;;;5.50;87.90;;;;;;4862416;29;20215;-90
2022/04/09 08:20:41;;;;;;;10.30;2.00;;;5.40;87.90;;;;;;4862213;29;20184;-89
2022/04/09 08:23:06;;;;;;;7.97;1.80;;;5.70;88.10;;;;;;4861034;29;20178;-89
2022/04/09 08:25:32;;;;;;;1.63;1.07;;;5.70;87.20;;;;;;4862457;29;20180;-90
2022/04/09 08:27:57;;;;;;;5.33;1.50;;;5.70;87.70;;;;;;4860902;29;20196;-90
2022/04/09 08:30:23;;;;;;;6.50;1.80;;;5.80;87.50;;;;;;4860912;29;20222;-90
2022/04/09 08:32:50;;;;;;;8.00;1.87;;;5.90;87.70;;;;;;4861997;29;20203;-90
2022/04/09 08:35:19;;;;;;;5.50;1.90;;;5.80;87.30;;;;;;4860788;29;20210;-89
2022/04/09 08:37:55;;;;;;;9.60;2.17;;;5.80;87.80;;;;;;4861790;29;20210;-90
2022/04/09 08:40:21;;;;;;;6.93;2.10;;;5.80;87.90;;;;;;4861868;29;20649;-89
2022/04/09 08:42:48;;;;;;;4.77;2.30;;;5.90;87.90;;;;;;4860824;29;20657;-90
2022/04/09 08:45:15;;;;;;;8.33;2.67;;;5.90;87.60;;;;;;4860589;29;20189;-89
2022/04/09 08:47:42;;;;;;;3.90;1.57;;;6.20;87.70;;;;;;4861592;29;20205;-90
2022/04/09 08:50:10;;;;;;;16.67;2.30;;;6.50;87.40;;;;;;4860537;29;20222;-90
2022/04/09 08:52:44;;;;;;;11.50;2.60;;;6.80;86.00;;;;;;4860478;29;20177;-90
2022/04/09 08:55:12;;;;;;;10.37;2.53;;;6.70;83.70;;;;;;4861663;29;20170;-90
2022/04/09 08:57:38;;;;;;;22.43;2.80;;;6.70;83.70;;;;;;4860407;29;20229;-90
2022/04/09 09:00:14;;;;;;;10.43;2.37;;;6.40;83.00;;;;;;4860406;29;20182;-90
2022/04/09 09:03:10;;;;;;;10.87;3.03;;;6.00;85.00;;;;;;4861555;29;20181;-91
2022/04/09 09:05:38;;;;;;;15.73;2.33;;;6.00;87.50;;;;;;4857494;29;20214;-90
2022/04/09 09:08:06;;;;;;;12.10;2.27;;;6.20;87.30;;;;;;4861205;29;20228;-90
2022/04/09 09:10:32;;;;;;;14.10;2.37;;;6.30;86.90;;;;;;4861559;29;20284;-90
2022/04/09 09:13:09;;;;;;;10.37;2.30;;;6.70;86.60;;;;;;4859979;29;20185;-90
2022/04/09 09:15:58;;;;;;;9.70;2.37;;;6.90;83.70;;;;;;4864887;29;20188;-93
2022/04/09 09:18:28;;;;;;;6.97;2.03;;;7.00;80.40;;;;;;4867337;29;20213;-89
2022/04/09 09:20:58;;;;;;;4.07;1.40;;;7.00;80.10;;;;;;4862158;29;20206;-89
2022/04/09 09:23:30;;;;;;;10.73;1.70;;;7.30;81.80;;;;;;4862231;29;20226;-93
2022/04/09 09:25:57;;;;;;;8.33;1.30;;;7.30;79.30;;;;;;4860588;29;20178;-90
2022/04/09 09:28:33;;;;;;;5.13;1.83;;;7.10;78.80;;;;;;4860001;29;20202;-89
2022/04/09 09:31:00;;;;;;;4.10;1.40;;;7.20;79.00;;;;;;4860108;29;20186;-90
2022/04/09 09:33:27;;;;;;;4.27;1.40;;;7.30;79.40;;;;;;4861437;29;20254;-91
2022/04/09 09:35:59;;;;;;;7.73;2.10;;;7.30;78.90;;;;;;4859955;29;20217;-90
2022/04/09 09:38:31;;;;;;;4.57;1.60;;;7.10;77.90;;;;;;4859793;29;20206;-90
2022/04/09 09:40:57;;;;;;;6.30;2.17;;;6.80;79.70;;;;;;4861058;29;20627;-91
2022/04/09 09:43:24;;;;;;;8.47;1.90;;;6.50;79.30;;;;;;4859712;29;20182;-90
2022/04/09 09:45:52;;;;;;;5.03;1.50;;;6.40;80.70;;;;;;4859719;29;20371;-90
2022/04/09 09:48:23;;;;;;;5.33;1.70;;;6.40;80.60;;;;;;4859759;29;20720;-90
2022/04/09 09:50:49;;;;;;;4.33;2.03;;;6.30;79.60;;;;;;4859806;29;20197;-91
2022/04/09 09:53:15;;;;;;;6.00;1.80;;;6.30;80.10;;;;;;4860894;29;20182;-90
2022/04/09 09:55:44;;;;;;;9.13;2.20;;;6.50;79.90;;;;;;4860879;29;20182;-89
2022/04/09 09:58:15;;;;;;;8.13;2.30;;;6.80;80.60;;;;;;4860698;29;20258;-90
2022/04/09 10:00:40;;;;;;;7.00;1.87;;;6.90;79.50;;;;;;4859970;29;20181;-90
2022/04/09 10:03:07;;;;;;;8.63;2.33;;;7.30;81.20;;;;;;4859591;29;20183;-90
2022/04/09 10:05:34;;;;;;;8.70;2.17;;;7.50;79.10;;;;;;4860005;29;20187;-91
2022/04/09 10:07:59;;;;;;;7.40;2.10;;;7.40;77.60;;;;;;4859659;29;20701;-90
2022/04/09 10:10:27;;;;;;;5.07;1.77;;;7.50;76.70;;;;;;4861039;29;20189;-89
2022/04/09 10:12:55;;;;;;;11.63;2.47;;;7.60;77.00;;;;;;4860816;29;20175;-90
2022/04/09 10:15:26;;;;;;;10.97;2.27;;;7.50;76.10;;;;;;4860694;29;20185;-90
2022/04/09 10:17:54;;;;;;;12.93;2.80;;;8.10;76.00;;;;;;4859831;29;20572;-91
2022/04/09 10:20:59;;;;;;;7.63;2.13;;;8.30;75.60;;;;;;4874717;29;20166;-93
2022/04/09 10:23:46;;;;;;;7.23;2.10;;;8.00;74.10;;;;;;4863358;29;20262;-93
2022/04/09 10:26:13;;;;;;;4.30;1.80;;;7.40;77.40;;;;;;4884783;29;20175;-92
2022/04/09 10:28:40;;;;;;;9.33;2.57;;;7.00;79.00;;;;;;4898109;23;20238;-88
2022/04/09 10:31:23;;;;;;;6.17;2.10;;;6.60;80.30;;;;;;4883700;29;20230;-90
2022/04/09 10:33:55;;;;;;;6.27;2.40;;;6.10;81.10;;;;;;4866658;29;20537;-88
2022/04/09 10:36:40;;;;;;;11.00;3.23;;;6.00;82.80;;;;;;4866238;29;20186;-88
2022/04/09 10:39:26;;;;;;;12.33;3.03;;;6.50;84.70;;;;;;4866137;29;20202;-88
2022/04/09 10:41:55;;;;;;;10.93;2.10;;;6.90;85.50;;;;;;4866339;29;20739;-87
2022/04/09 10:44:53;;;;;;;13.77;3.17;;;7.30;83.80;;;;;;4866888;29;20185;-91
2022/04/09 10:47:19;;;;;;;9.70;2.13;;;7.60;82.20;;;;;;4884519;29;20233;-91
2022/04/09 10:50:00;;;;;;;4.83;1.53;;;7.70;81.30;;;;;;4868525;29;20182;-87
2022/04/09 10:52:34;;;;;;;8.80;1.73;;;7.80;79.00;;;;;;4867397;29;20186;-89
2022/04/09 10:55:22;;;;;;;6.43;1.60;;;7.90;77.50;;;;;;4869123;29;20178;-88
2022/04/09 10:57:51;;;;;;;4.93;1.67;;;8.10;75.70;;;;;;4865561;29;20194;-88
2022/04/09 11:00:31;;;;;;;4.97;1.57;;;8.20;75.20;;;;;;4865516;29;20202;-89
2022/04/09 11:03:29;;;;;;;6.50;1.90;;;8.10;75.80;;;;;;4865770;29;20266;-88
2022/04/09 11:06:34;;;;;;;8.13;2.30;;;8.10;76.30;;;;;;4852309;29;20186;-89
2022/04/09 11:09:03;;;;;;;12.77;2.40;;;8.10;75.70;;;;;;4913898;23;20297;-89
2022/04/09 11:11:29;;;;;;;10.83;2.23;;;8.30;75.00;;;;;;4887547;29;20174;-87
2022/04/09 11:13:54;;;;;;;7.47;1.97;;;8.70;74.10;;;;;;4887795;29;20185;-89
2022/04/09 11:16:20;;;;;;;12.50;2.50;;;8.50;72.80;;;;;;4885279;29;20170;-88
2022/04/09 11:18:47;;;;;;;13.93;2.50;;;8.30;71.80;;;;;;4888637;29;20241;-85
2022/04/09 11:21:13;;;;;;;15.53;2.80;;;8.40;71.90;;;;;;4887300;29;20178;-87
2022/04/09 11:23:38;;;;;;;16.87;3.70;;;8.30;72.30;;;;;;4884282;29;20237;-88
2022/04/09 11:26:04;;;;;;;9.23;2.90;;;8.30;73.40;;;;;;4885612;29;20233;-85
2022/04/09 11:28:38;;;;;;;10.43;2.80;;;8.30;73.60;;;;;;4885415;29;20222;-89
2022/04/09 11:31:05;;;;;;;18.90;2.87;;;8.40;72.10;;;;;;4886723;29;20165;-86
2022/04/09 11:33:31;;;;;;;12.93;2.87;;;8.30;71.30;;;;;;4881595;29;20238;-87
2022/04/09 11:35:59;;;;;;;13.13;3.10;;;8.20;72.60;;;;;;4882290;29;20186;-88
2022/04/09 11:38:26;;;;;;;11.30;2.87;;;8.30;73.00;;;;;;4881933;29;20214;-89
2022/04/09 11:40:53;;;;;;;12.13;2.37;;;8.40;71.90;;;;;;4881908;29;20182;-87
2022/04/09 11:43:19;;;;;;;9.10;2.67;;;8.50;70.40;;;;;;4883311;29;20553;-91
2022/04/09 11:45:45;;;;;;;15.40;3.07;;;8.70;69.30;;;;;;4881485;29;20182;-88
2022/04/09 11:48:16;;;;;;;13.87;3.23;;;8.50;69.30;;;;;;4881563;29;20280;-89
2022/04/09 11:50:42;;;;;;;11.20;3.90;;;8.60;68.50;;;;;;4880482;29;20206;-89
2022/04/09 11:53:20;;;;;;;15.23;3.60;;;8.50;68.50;;;;;;4880524;29;20684;-88
2022/04/09 11:55:46;;;;;;;18.27;4.00;;;8.80;68.80;;;;;;4882045;29;20170;-88
2022/04/09 11:58:18;;;;;;;15.37;3.60;;;8.90;66.90;;;;;;4880597;29;20209;-88
2022/04/09 12:00:45;;;;;;;14.33;3.50;;;8.70;66.70;;;;;;4880450;29;20645;-88
2022/04/09 12:03:12;;;;;;;32.77;5.47;;;8.80;68.00;;;;;;4880628;29;20321;-89
2022/04/09 12:05:44;;;;;;;16.73;2.77;;;9.00;68.50;;;;;;4882278;29;20174;-88
2022/04/09 12:08:17;;;;;;;17.53;3.57;;;8.90;67.50;;;;;;4881208;29;20704;-88
2022/04/09 12:10:54;;;;;;;20.17;3.87;;;8.80;70.20;;;;;;4881178;29;20178;-87
2022/04/09 12:13:33;;;;;;;14.83;3.60;;;9.30;70.50;;;;;;4880454;29;20609;-88
2022/04/09 12:16:16;;;;;;;18.30;3.13;;;9.10;67.60;;;;;;4885917;29;20287;-88
2022/04/09 12:18:42;;;;;;;17.87;4.13;;;9.10;65.80;;;;;;4880605;29;20225;-87
2022/04/09 12:21:25;;;;;;;24.23;4.87;;;9.20;67.50;;;;;;4880161;29;20649;-87
2022/04/09 12:24:02;;;;;;;20.73;4.30;;;9.10;65.70;;;;;;4881285;29;20186;-88
2022/04/09 12:26:29;;;;;;;18.50;4.57;;;9.10;65.40;;;;;;4880901;29;20557;-88
2022/04/09 12:29:17;;;;;;;8.90;3.43;;;9.30;64.00;;;;;;4880623;29;20206;-88
2022/04/09 12:31:46;;;;;;;14.90;3.70;;;9.40;64.20;;;;;;4882355;29;20650;-88
2022/04/09 12:34:11;;;;;;;14.50;3.33;;;9.20;64.80;;;;;;4881074;29;20186;-88
2022/04/09 12:36:38;;;;;;;10.27;2.53;;;9.60;63.40;;;;;;4880080;29;20253;-89
2022/04/09 12:39:26;;;;;;;9.50;2.70;;;9.40;62.50;;;;;;4879793;29;20700;-87
2022/04/09 12:41:52;;;;;;;11.00;3.70;;;9.40;61.60;;;;;;4880204;29;20226;-88
2022/04/09 12:44:29;;;;;;;22.70;4.13;;;9.40;61.90;;;;;;4880195;29;20248;-88
2022/04/09 12:46:55;;;;;;;19.93;4.70;;;9.50;64.80;;;;;;4880304;29;20218;-88
2022/04/09 12:49:38;;;;;;;13.57;3.40;;;10.00;64.40;;;;;;4880561;29;20198;-88
2022/04/09 12:52:06;;;;;;;8.93;2.60;;;9.80;61.00;;;;;;4881751;29;20169;-89
2022/04/09 12:54:32;;;;;;;15.77;3.63;;;9.40;59.20;;;;;;4880492;29;20187;-88
2022/04/09 12:57:05;;;;;;;18.57;4.33;;;9.60;60.00;;;;;;4881542;29;20539;-88
2022/04/09 12:59:31;;;;;;;18.80;4.30;;;9.30;60.10;;;;;;4880970;29;20229;-87
2022/04/09 13:01:56;;;;;;;27.57;4.80;;;9.30;59.70;;;;;;4880570;29;20223;-87